Time;durP1;ratioP1;P1;durP2;ratioP2;P2;SDS_P1;SDS_P2;PMS_P1;PMS_P2;Temp;Humidity;BMP_temperature;BMP_pressure;BME280_temperature;BME280_humidity;BME280_pressure;Samples;Min_cycle;Max_cycle;Signal;HPM_P1;HPM_P2
2023/11/19 00:00:36;;;;;;;16.63;11.93;;;13.20;99.90;;;;;;5026045;28;20021;-85
2023/11/19 00:03:02;;;;;;;16.48;13.18;;;13.20;99.90;;;;;;5023464;28;20038;-85
2023/11/19 00:05:27;;;;;;;17.20;13.43;;;13.30;99.90;;;;;;5025584;28;20037;-84
2023/11/19 00:07:53;;;;;;;17.90;14.65;;;13.30;99.90;;;;;;5023620;28;20029;-82
2023/11/19 00:10:19;;;;;;;18.20;14.30;;;13.30;99.90;;;;;;5025659;28;20592;-82
2023/11/19 00:12:49;;;;;;;17.30;14.07;;;13.40;99.90;;;;;;5042487;28;20018;-83
2023/11/19 00:15:17;;;;;;;19.60;13.52;;;13.40;99.90;;;;;;5024378;28;20017;-84
2023/11/19 00:17:47;;;;;;;20.23;14.93;;;13.40;99.90;;;;;;5025574;28;20037;-84
2023/11/19 00:20:16;;;;;;;18.55;13.05;;;13.40;99.90;;;;;;5023110;28;20036;-84
2023/11/19 00:22:42;;;;;;;16.60;12.38;;;13.40;99.90;;;;;;5043004;28;20529;-84
2023/11/19 00:25:11;;;;;;;14.13;12.27;;;13.40;99.90;;;;;;5023140;28;20033;-82
2023/11/19 00:27:37;;;;;;;17.95;11.95;;;13.40;99.90;;;;;;5024848;28;20027;-85
2023/11/19 00:30:06;;;;;;;17.08;12.65;;;13.40;99.90;;;;;;5024441;28;20049;-82
2023/11/19 00:32:36;;;;;;;17.85;11.10;;;13.40;99.90;;;;;;5023334;28;20029;-84
2023/11/19 00:35:02;;;;;;;15.80;11.68;;;13.40;99.90;;;;;;5025051;28;20029;-84
2023/11/19 00:37:28;;;;;;;14.57;10.43;;;13.50;99.90;;;;;;5040841;28;20104;-84
2023/11/19 00:39:56;;;;;;;15.20;8.73;;;13.50;99.90;;;;;;5058331;28;20025;-84
2023/11/19 00:42:22;;;;;;;19.17;9.98;;;13.50;99.90;;;;;;5041316;28;20037;-84
2023/11/19 00:44:47;;;;;;;22.75;10.52;;;13.50;99.90;;;;;;5024627;28;20029;-84
2023/11/19 00:47:13;;;;;;;18.27;9.60;;;13.50;99.90;;;;;;5024655;28;20089;-84
2023/11/19 00:49:39;;;;;;;14.25;8.25;;;13.50;99.90;;;;;;5023286;28;20026;-84
2023/11/19 00:52:06;;;;;;;11.65;6.88;;;13.60;99.90;;;;;;5024891;28;20047;-84
2023/11/19 00:54:32;;;;;;;14.63;7.40;;;13.60;99.90;;;;;;5022882;28;20042;-84
2023/11/19 00:56:57;;;;;;;14.00;7.40;;;13.60;99.90;;;;;;5025088;28;20124;-84
2023/11/19 00:59:23;;;;;;;17.92;7.82;;;13.60;99.90;;;;;;5022725;28;20029;-84
2023/11/19 01:01:51;;;;;;;13.95;6.88;;;13.60;99.90;;;;;;5042808;28;20033;-83
2023/11/19 01:04:17;;;;;;;20.48;7.18;;;13.60;99.90;;;;;;5024283;28;20034;-84
2023/11/19 01:06:42;;;;;;;20.80;7.18;;;13.60;99.90;;;;;;5040884;28;20038;-84
2023/11/19 01:09:09;;;;;;;16.88;6.05;;;13.70;99.90;;;;;;5025094;28;20114;-83
2023/11/19 01:11:35;;;;;;;21.77;6.32;;;13.70;99.90;;;;;;5022943;28;20547;-86
2023/11/19 01:14:01;;;;;;;18.63;6.28;;;13.70;99.90;;;;;;5025012;28;20032;-84
2023/11/19 01:16:27;;;;;;;17.08;5.28;;;13.70;99.90;;;;;;5022551;28;20485;-84
2023/11/19 01:18:52;;;;;;;19.15;6.07;;;13.70;99.90;;;;;;5042449;28;20028;-84
2023/11/19 01:21:18;;;;;;;20.73;5.47;;;13.70;99.90;;;;;;5023375;28;20024;-83
2023/11/19 01:23:45;;;;;;;17.17;4.25;;;13.70;99.90;;;;;;5023299;28;20381;-84
2023/11/19 01:26:12;;;;;;;21.65;5.13;;;13.70;99.90;;;;;;5024817;28;20030;-83
2023/11/19 01:28:39;;;;;;;18.17;4.60;;;13.70;99.90;;;;;;5022231;28;20033;-84
2023/11/19 01:31:08;;;;;;;18.85;4.68;;;13.70;99.90;;;;;;5024805;28;20025;-84
2023/11/19 01:33:35;;;;;;;18.52;4.78;;;13.80;99.90;;;;;;5022204;28;20022;-84
2023/11/19 01:36:01;;;;;;;22.73;5.20;;;13.80;99.90;;;;;;5024326;28;20029;-84
2023/11/19 01:38:27;;;;;;;17.85;4.97;;;13.80;99.90;;;;;;5023782;28;20049;-84
2023/11/19 01:40:58;;;;;;;18.02;4.47;;;13.80;99.90;;;;;;5023345;28;20021;-84
2023/11/19 01:43:33;;;;;;;23.33;5.82;;;13.80;99.90;;;;;;5042482;28;20109;-84
2023/11/19 01:45:59;;;;;;;21.92;5.20;;;13.80;99.90;;;;;;5025337;28;20518;-84
2023/11/19 01:48:24;;;;;;;23.30;4.85;;;13.80;99.90;;;;;;5027886;28;20013;-84
2023/11/19 01:50:52;;;;;;;20.55;4.38;;;13.80;99.90;;;;;;5026422;28;20112;-84
2023/11/19 01:53:18;;;;;;;21.77;4.47;;;13.80;99.90;;;;;;5028011;28;20040;-84
2023/11/19 01:55:44;;;;;;;22.50;4.35;;;13.80;99.90;;;;;;5027571;28;20021;-84
2023/11/19 01:58:09;;;;;;;18.40;4.28;;;13.80;99.90;;;;;;5026369;28;20035;-84
2023/11/19 02:00:35;;;;;;;26.33;4.22;;;13.80;99.90;;;;;;5028236;28;20021;-83
2023/11/19 02:03:01;;;;;;;23.83;4.45;;;13.80;99.90;;;;;;5025507;28;20044;-84
2023/11/19 02:05:28;;;;;;;16.75;4.30;;;13.80;99.90;;;;;;5028139;28;20045;-84
2023/11/19 02:07:53;;;;;;;14.27;3.30;;;13.80;99.90;;;;;;5043422;28;20025;-83
2023/11/19 02:10:19;;;;;;;23.35;3.75;;;13.80;99.90;;;;;;5044512;28;20388;-83
2023/11/19 02:12:46;;;;;;;27.15;4.50;;;13.80;99.90;;;;;;5043502;28;20530;-84
2023/11/19 02:15:12;;;;;;;17.90;4.25;;;13.80;99.90;;;;;;5042572;28;20026;-83
2023/11/19 02:17:37;;;;;;;27.88;3.90;;;13.80;99.90;;;;;;5044197;28;20025;-83
2023/11/19 02:20:11;;;;;;;23.10;4.45;;;13.80;99.90;;;;;;5043380;28;20028;-83
2023/11/19 02:22:37;;;;;;;;;;;13.80;99.90;;;;;;5044674;28;20046;-83
2023/11/19 02:25:19;;;;;;;19.60;3.92;;;13.80;99.90;;;;;;5043595;28;19905;-84
2023/11/19 02:27:57;;;;;;;23.05;3.15;;;13.80;99.90;;;;;;5043201;28;20036;-83
2023/11/19 02:30:29;;;;;;;27.73;4.10;;;13.80;99.90;;;;;;5043781;28;20034;-82
2023/11/19 02:32:57;;;;;;;25.92;4.03;;;13.70;99.90;;;;;;5041883;28;20025;-83
2023/11/19 02:35:23;;;;;;;17.77;3.47;;;13.70;99.90;;;;;;5043789;28;20093;-83
2023/11/19 02:37:49;;;;;;;22.30;4.07;;;13.70;99.90;;;;;;5041738;28;20052;-83
2023/11/19 02:40:15;;;;;;;29.23;4.10;;;13.70;99.90;;;;;;5043895;28;20030;-82
2023/11/19 02:42:41;;;;;;;27.58;4.35;;;13.70;99.90;;;;;;5042517;28;20041;-82
2023/11/19 02:45:08;;;;;;;28.35;3.95;;;13.70;99.90;;;;;;5042223;28;20022;-83
2023/11/19 02:47:34;;;;;;;36.47;5.43;;;13.70;99.90;;;;;;5045194;28;20022;-82
2023/11/19 02:50:00;;;;;;;31.00;4.97;;;13.70;99.90;;;;;;5041463;28;20085;-83
2023/11/19 02:52:26;;;;;;;30.60;4.53;;;13.70;99.90;;;;;;5043884;28;20113;-82
2023/11/19 02:54:52;;;;;;;31.63;5.93;;;13.70;99.90;;;;;;5041340;28;20025;-83
2023/11/19 02:57:21;;;;;;;28.20;4.75;;;13.60;99.90;;;;;;5042943;28;20030;-84
2023/11/19 02:59:46;;;;;;;34.50;6.00;;;13.60;99.90;;;;;;5042167;28;20026;-84
2023/11/19 03:02:12;;;;;;;32.28;6.00;;;13.60;99.90;;;;;;5042666;28;20026;-84
2023/11/19 03:04:42;;;;;;;27.95;5.63;;;13.60;99.90;;;;;;5043439;28;20029;-84
2023/11/19 03:07:08;;;;;;;28.75;5.50;;;13.60;99.90;;;;;;5041166;28;20429;-82
2023/11/19 03:09:35;;;;;;;26.80;5.15;;;13.50;99.90;;;;;;5043150;28;20028;-83
2023/11/19 03:12:01;;;;;;;27.42;4.30;;;13.50;99.90;;;;;;5040697;28;20040;-82
2023/11/19 03:14:27;;;;;;;34.78;5.13;;;13.40;99.90;;;;;;5043162;28;20022;-83
2023/11/19 03:16:53;;;;;;;31.00;5.05;;;13.40;99.90;;;;;;5042176;28;20044;-83
2023/11/19 03:19:19;;;;;;;28.48;5.55;;;13.40;99.90;;;;;;5042112;28;20056;-83
2023/11/19 03:21:44;;;;;;;34.33;5.60;;;13.30;99.90;;;;;;5043000;28;20033;-83
2023/11/19 03:24:13;;;;;;;35.67;5.75;;;13.30;99.90;;;;;;5040904;28;20037;-83
2023/11/19 03:26:39;;;;;;;41.13;6.80;;;13.30;99.90;;;;;;5042874;28;20091;-83
2023/11/19 03:29:04;;;;;;;36.00;6.75;;;13.30;99.90;;;;;;5040405;28;20021;-83
2023/11/19 03:31:30;;;;;;;35.65;5.75;;;13.20;99.90;;;;;;5043010;28;20025;-82
2023/11/19 03:33:56;;;;;;;39.47;7.25;;;13.20;99.90;;;;;;5041659;28;20025;-83
2023/11/19 03:36:22;;;;;;;35.65;6.18;;;13.20;99.90;;;;;;5041972;28;20025;-83
2023/11/19 03:38:48;;;;;;;30.83;5.57;;;13.10;99.90;;;;;;5042669;28;20108;-83
2023/11/19 03:41:14;;;;;;;34.83;5.53;;;13.10;99.90;;;;;;5040935;28;20060;-84
2023/11/19 03:43:40;;;;;;;37.97;6.63;;;13.00;99.90;;;;;;5042633;28;20038;-84
2023/11/19 03:46:19;;;;;;;34.33;6.03;;;12.90;99.90;;;;;;5040294;28;20025;-84
2023/11/19 03:48:47;;;;;;;36.45;6.53;;;12.90;99.90;;;;;;5042628;28;20102;-84
2023/11/19 03:51:15;;;;;;;40.08;6.55;;;12.80;99.90;;;;;;5041308;28;20028;-81
2023/11/19 03:53:43;;;;;;;36.42;5.47;;;12.80;99.90;;;;;;5042432;28;20029;-82
2023/11/19 03:56:09;;;;;;;34.30;5.53;;;12.70;99.90;;;;;;5042636;28;20025;-83
2023/11/19 03:58:35;;;;;;;34.88;6.15;;;12.70;99.90;;;;;;5040074;28;20047;-83
2023/11/19 04:01:02;;;;;;;33.05;6.15;;;12.60;99.90;;;;;;5043872;28;20022;-83
2023/11/19 04:03:28;;;;;;;39.67;7.18;;;12.60;99.90;;;;;;5040109;28;20044;-84
2023/11/19 04:05:53;;;;;;;35.10;7.00;;;12.50;99.90;;;;;;5041999;28;20059;-84
2023/11/19 04:08:19;;;;;;;32.72;5.25;;;12.50;99.90;;;;;;5040179;28;20030;-84
2023/11/19 04:10:45;;;;;;;51.90;7.00;;;12.50;99.90;;;;;;5041214;28;20072;-85
2023/11/19 04:13:10;;;;;;;40.15;6.55;;;12.40;99.90;;;;;;5041848;28;20041;-84
2023/11/19 04:15:36;;;;;;;40.55;5.40;;;12.40;99.90;;;;;;5039854;28;20025;-85
2023/11/19 04:18:02;;;;;;;31.35;6.30;;;12.30;99.90;;;;;;5042112;28;20391;-85
2023/11/19 04:20:28;;;;;;;46.22;6.20;;;12.30;99.90;;;;;;5039801;28;20021;-85
2023/11/19 04:22:53;;;;;;;35.58;4.93;;;12.20;99.90;;;;;;5058170;28;20056;-85
2023/11/19 04:25:19;;;;;;;42.88;6.35;;;12.20;99.90;;;;;;5062227;28;20096;-85
2023/11/19 04:27:45;;;;;;;37.13;6.63;;;12.20;99.90;;;;;;5044410;28;20036;-85
2023/11/19 04:30:11;;;;;;;40.67;6.25;;;12.20;99.90;;;;;;5063414;28;20017;-84
2023/11/19 04:32:37;;;;;;;38.13;5.82;;;12.10;99.90;;;;;;5043552;28;20386;-85
2023/11/19 04:35:03;;;;;;;35.28;5.25;;;12.20;99.90;;;;;;5044963;28;20540;-85
2023/11/19 04:37:29;;;;;;;33.40;5.20;;;12.10;99.90;;;;;;5042723;28;20020;-85
2023/11/19 04:39:55;;;;;;;38.95;6.57;;;12.10;99.90;;;;;;5045140;28;20022;-84
2023/11/19 04:42:24;;;;;;;49.50;7.18;;;12.10;99.90;;;;;;5042833;28;20033;-84
2023/11/19 04:44:49;;;;;;;41.38;7.38;;;12.00;99.90;;;;;;5044477;28;20079;-84
2023/11/19 04:47:15;;;;;;;43.03;6.82;;;12.00;99.90;;;;;;5044435;28;20025;-83
2023/11/19 04:49:44;;;;;;;43.33;6.88;;;12.00;99.90;;;;;;5042627;28;20052;-84
2023/11/19 04:52:11;;;;;;;35.10;6.05;;;12.00;99.90;;;;;;5044970;28;20439;-84
2023/11/19 04:54:42;;;;;;;41.70;6.32;;;12.00;99.90;;;;;;5042443;28;20059;-84
2023/11/19 04:57:09;;;;;;;37.47;6.50;;;12.00;99.90;;;;;;5044860;28;20078;-84
2023/11/19 04:59:35;;;;;;;40.72;6.47;;;11.90;99.90;;;;;;5043500;28;20036;-84
2023/11/19 05:02:00;;;;;;;40.97;7.72;;;12.00;99.90;;;;;;5043845;28;20013;-84
2023/11/19 05:04:26;;;;;;;49.80;7.72;;;11.90;99.90;;;;;;5044683;28;20018;-84
2023/11/19 05:06:53;;;;;;;29.95;5.97;;;11.90;99.90;;;;;;5043021;28;20029;-85
2023/11/19 05:09:19;;;;;;;59.60;8.30;;;11.90;99.90;;;;;;5044373;28;20067;-85
2023/11/19 05:11:44;;;;;;;37.28;6.28;;;11.90;99.90;;;;;;5042766;28;20022;-85
2023/11/19 05:14:10;;;;;;;27.70;5.05;;;11.90;99.90;;;;;;5044789;28;20376;-84
2023/11/19 05:16:36;;;;;;;39.83;4.97;;;11.90;99.90;;;;;;5042839;28;20051;-84
2023/11/19 05:19:01;;;;;;;33.10;4.97;;;11.90;99.90;;;;;;5045223;28;20041;-84
2023/11/19 05:21:27;;;;;;;45.95;6.22;;;11.90;99.90;;;;;;5066763;28;20072;-84
2023/11/19 05:23:54;;;;;;;34.55;5.75;;;11.80;99.90;;;;;;5046547;28;20033;-86
2023/11/19 05:26:21;;;;;;;41.55;6.32;;;11.90;99.90;;;;;;5048170;28;20017;-84
2023/11/19 05:28:47;;;;;;;48.08;6.30;;;11.90;99.90;;;;;;5045626;28;20017;-84
2023/11/19 05:31:13;;;;;;;38.05;7.30;;;11.90;99.90;;;;;;5048149;28;20021;-84
2023/11/19 05:33:39;;;;;;;43.22;8.43;;;11.90;99.90;;;;;;5046511;28;20053;-85
2023/11/19 05:36:05;;;;;;;41.42;7.00;;;12.00;99.90;;;;;;5048158;28;20343;-83
2023/11/19 05:38:31;;;;;;;38.97;5.85;;;12.00;99.90;;;;;;5047464;28;20025;-83
2023/11/19 05:40:57;;;;;;;38.08;6.70;;;12.00;99.90;;;;;;5046574;28;20201;-84
2023/11/19 05:43:22;;;;;;;34.88;6.88;;;12.10;99.90;;;;;;5048139;28;20098;-84
2023/11/19 05:45:48;;;;;;;37.47;6.68;;;12.10;99.90;;;;;;5046031;28;20107;-85
2023/11/19 05:48:13;;;;;;;39.22;5.63;;;12.10;99.90;;;;;;5048115;28;20025;-84
2023/11/19 05:50:39;;;;;;;41.40;5.80;;;12.10;99.90;;;;;;5046278;28;20017;-84
2023/11/19 05:53:13;;;;;;;32.50;5.25;;;12.10;99.90;;;;;;5047953;28;20080;-84
2023/11/19 05:55:46;;;;;;;40.38;6.88;;;12.10;99.90;;;;;;5047545;28;20025;-83
2023/11/19 05:58:12;;;;;;;40.28;6.40;;;12.10;99.90;;;;;;5046296;28;20051;-84
2023/11/19 06:00:40;;;;;;;37.63;6.07;;;12.10;99.90;;;;;;5065783;28;20017;-83
2023/11/19 06:03:07;;;;;;;34.63;5.45;;;12.00;99.90;;;;;;5063623;28;20072;-84
2023/11/19 06:05:33;;;;;;;36.88;6.60;;;12.00;99.90;;;;;;5047915;28;20025;-83
2023/11/19 06:07:59;;;;;;;49.53;8.45;;;12.00;99.90;;;;;;5063906;28;20410;-84
2023/11/19 06:10:30;;;;;;;44.15;7.93;;;12.00;99.90;;;;;;5047319;28;20021;-84
2023/11/19 06:12:59;;;;;;;43.17;6.53;;;12.00;99.90;;;;;;5065322;28;20117;-84
2023/11/19 06:15:26;;;;;;;41.00;6.93;;;12.00;99.90;;;;;;5045540;28;20025;-84
2023/11/19 06:17:51;;;;;;;49.25;6.97;;;11.90;99.90;;;;;;5047715;28;20021;-84
2023/11/19 06:20:19;;;;;;;41.65;7.72;;;11.90;99.90;;;;;;5045444;28;20509;-82
2023/11/19 06:22:45;;;;;;;48.40;8.73;;;11.90;99.90;;;;;;5047030;28;20044;-84
2023/11/19 06:25:12;;;;;;;52.72;7.63;;;11.80;99.90;;;;;;5045705;28;20038;-84
2023/11/19 06:27:37;;;;;;;35.78;6.47;;;11.80;99.90;;;;;;5064572;28;20339;-83
2023/11/19 06:30:04;;;;;;;44.75;7.45;;;11.80;99.90;;;;;;5046879;28;20048;-83
2023/11/19 06:32:29;;;;;;;37.47;5.95;;;11.80;99.90;;;;;;5046824;28;20013;-83
2023/11/19 06:34:56;;;;;;;41.85;7.68;;;11.80;99.90;;;;;;5055352;28;20021;-82
2023/11/19 06:37:22;;;;;;;35.95;6.10;;;11.80;99.90;;;;;;5064456;28;20028;-84
2023/11/19 06:39:47;;;;;;;41.35;8.07;;;11.70;99.90;;;;;;5049785;28;20024;-84
2023/11/19 06:42:13;;;;;;;39.97;6.53;;;11.70;99.90;;;;;;5044622;28;20433;-84
2023/11/19 06:44:39;;;;;;;41.15;7.55;;;11.70;99.90;;;;;;5049387;28;20025;-84
2023/11/19 06:47:05;;;;;;;44.03;7.32;;;11.70;99.90;;;;;;5046140;28;20112;-83
2023/11/19 06:49:30;;;;;;;43.47;7.22;;;11.60;99.90;;;;;;5046304;28;20213;-84
2023/11/19 06:51:56;;;;;;;37.83;5.22;;;11.70;99.90;;;;;;5050329;28;20024;-82
2023/11/19 06:54:22;;;;;;;48.15;7.13;;;11.60;99.90;;;;;;5062086;28;20036;-81
2023/11/19 06:56:49;;;;;;;39.95;6.20;;;11.60;99.90;;;;;;5056114;28;20013;-81
2023/11/19 06:59:14;;;;;;;35.08;6.85;;;11.60;99.90;;;;;;5044405;28;20021;-82
2023/11/19 07:01:43;;;;;;;37.50;5.65;;;11.60;99.90;;;;;;5046712;28;20028;-82
2023/11/19 07:04:12;;;;;;;53.25;8.05;;;11.60;99.90;;;;;;5046007;28;20092;-82
2023/11/19 07:06:40;;;;;;;40.25;6.47;;;11.60;99.90;;;;;;5052974;28;20024;-82
2023/11/19 07:09:09;;;;;;;39.72;6.82;;;11.60;99.90;;;;;;5055304;28;20059;-83
2023/11/19 07:11:39;;;;;;;42.60;7.00;;;11.60;99.90;;;;;;5051979;28;20212;-82
2023/11/19 07:14:06;;;;;;;44.10;7.20;;;11.60;99.90;;;;;;5055399;28;20376;-82
2023/11/19 07:16:34;;;;;;;41.03;6.85;;;11.60;99.90;;;;;;5058665;28;20220;-83
2023/11/19 07:19:03;;;;;;;36.40;5.80;;;11.60;99.90;;;;;;5084237;28;20441;-83
2023/11/19 07:21:29;;;;;;;34.97;6.43;;;11.60;99.90;;;;;;5065646;28;20025;-82
2023/11/19 07:23:57;;;;;;;49.50;8.15;;;11.60;99.90;;;;;;5082528;28;20039;-82
2023/11/19 07:26:23;;;;;;;39.63;6.47;;;11.60;99.90;;;;;;5066271;28;20478;-83
2023/11/19 07:28:53;;;;;;;34.97;5.78;;;11.60;99.90;;;;;;5063774;28;20020;-82
2023/11/19 07:31:19;;;;;;;47.72;6.93;;;11.60;99.90;;;;;;5066190;28;20036;-82
2023/11/19 07:33:45;;;;;;;42.47;6.63;;;11.60;99.90;;;;;;5064307;28;20028;-83
2023/11/19 07:36:12;;;;;;;36.55;6.43;;;11.60;99.90;;;;;;5065049;28;20029;-82
2023/11/19 07:38:38;;;;;;;36.95;6.07;;;11.60;99.90;;;;;;5065443;28;20016;-82
2023/11/19 07:41:09;;;;;;;44.15;6.90;;;11.60;99.90;;;;;;5064349;28;20070;-83
2023/11/19 07:43:35;;;;;;;39.00;5.55;;;11.70;99.90;;;;;;5064816;28;20436;-83
2023/11/19 07:46:01;;;;;;;39.63;6.65;;;11.70;99.90;;;;;;5063918;28;20092;-83
2023/11/19 07:48:27;;;;;;;36.13;6.97;;;11.70;99.90;;;;;;5074984;28;20025;-83
2023/11/19 07:50:53;;;;;;;36.88;6.13;;;11.70;99.90;;;;;;5050551;28;20025;-82
2023/11/19 07:53:19;;;;;;;35.97;6.18;;;11.70;99.90;;;;;;5064817;28;20025;-83
2023/11/19 07:55:46;;;;;;;46.22;7.20;;;11.80;99.90;;;;;;5065535;28;20013;-82
2023/11/19 07:58:12;;;;;;;36.90;6.25;;;11.80;99.90;;;;;;5064236;28;20032;-83
2023/11/19 08:00:38;;;;;;;39.28;6.60;;;11.80;99.90;;;;;;5065932;28;20028;-83
2023/11/19 08:03:04;;;;;;;40.38;6.45;;;11.80;99.90;;;;;;5081329;28;20032;-83
2023/11/19 08:05:31;;;;;;;31.35;5.80;;;11.80;99.90;;;;;;5083200;28;20027;-83
2023/11/19 08:07:56;;;;;;;46.70;7.45;;;11.90;99.90;;;;;;5081139;28;20070;-82
2023/11/19 08:10:22;;;;;;;39.00;5.25;;;11.90;99.90;;;;;;5048238;28;20029;-83
2023/11/19 08:12:48;;;;;;;40.08;6.18;;;11.90;99.90;;;;;;5045338;28;20028;-83
2023/11/19 08:15:14;;;;;;;42.67;6.80;;;11.90;99.90;;;;;;5043875;28;20021;-82
2023/11/19 08:17:40;;;;;;;45.38;6.30;;;12.00;99.90;;;;;;5045442;28;20116;-82
2023/11/19 08:20:10;;;;;;;30.55;5.35;;;12.00;99.90;;;;;;5043058;28;20075;-82
2023/11/19 08:22:36;;;;;;;39.88;6.13;;;12.00;99.90;;;;;;5041786;28;20042;-82
2023/11/19 08:25:02;;;;;;;36.20;6.35;;;12.10;99.90;;;;;;5041335;28;20033;-82
2023/11/19 08:27:28;;;;;;;30.80;5.40;;;12.10;99.90;;;;;;5041218;28;20045;-82
2023/11/19 08:29:57;;;;;;;39.70;5.97;;;12.10;99.90;;;;;;5041264;28;20383;-82
2023/11/19 08:32:24;;;;;;;42.15;7.22;;;12.20;99.90;;;;;;5039811;28;20044;-82
2023/11/19 08:34:50;;;;;;;39.60;6.22;;;12.20;99.90;;;;;;5041790;28;20044;-83
2023/11/19 08:37:17;;;;;;;39.58;6.55;;;12.30;99.90;;;;;;5040088;28;20095;-81
2023/11/19 08:39:43;;;;;;;35.45;5.03;;;12.40;99.90;;;;;;5051392;28;20032;-82
2023/11/19 08:42:09;;;;;;;36.03;6.00;;;12.40;99.90;;;;;;5048807;28;20036;-80
2023/11/19 08:44:35;;;;;;;34.88;6.15;;;12.50;99.90;;;;;;5051847;28;20028;-81
2023/11/19 08:47:01;;;;;;;38.80;5.38;;;12.50;99.90;;;;;;5049363;28;20104;-80
2023/11/19 08:49:26;;;;;;;40.97;6.05;;;12.60;99.90;;;;;;5049400;28;20080;-81
2023/11/19 08:51:52;;;;;;;37.80;5.32;;;12.50;99.90;;;;;;5041837;28;20049;-81
2023/11/19 08:54:20;;;;;;;40.58;6.55;;;12.60;99.90;;;;;;5039064;28;20112;-82
2023/11/19 08:56:45;;;;;;;32.92;5.47;;;12.60;99.90;;;;;;5043774;28;20025;-81
2023/11/19 08:59:11;;;;;;;30.58;5.57;;;12.60;99.90;;;;;;5059136;28;20040;-81
2023/11/19 09:01:36;;;;;;;39.83;5.63;;;12.70;99.90;;;;;;5061036;28;20488;-81
2023/11/19 09:04:02;;;;;;;35.88;6.65;;;12.80;99.90;;;;;;5060016;28;20041;-81
2023/11/19 09:06:28;;;;;;;41.95;6.13;;;12.80;99.90;;;;;;5059797;28;20017;-82
2023/11/19 09:08:58;;;;;;;27.45;4.35;;;12.90;99.90;;;;;;5062497;28;20025;-81
2023/11/19 09:11:23;;;;;;;30.85;5.55;;;12.90;99.90;;;;;;5058643;28;20095;-82
2023/11/19 09:13:49;;;;;;;28.65;5.90;;;12.90;99.90;;;;;;5061212;28;20018;-82
2023/11/19 09:16:16;;;;;;;32.80;6.38;;;12.90;99.90;;;;;;5042120;28;20049;-81
2023/11/19 09:18:41;;;;;;;29.15;4.28;;;13.00;99.90;;;;;;5061348;28;20205;-82
2023/11/19 09:21:07;;;;;;;40.92;5.63;;;13.10;99.90;;;;;;5060191;28;20024;-81
2023/11/19 09:23:38;;;;;;;30.42;5.25;;;13.00;99.90;;;;;;5063189;28;20040;-82
2023/11/19 09:26:05;;;;;;;29.23;6.53;;;13.10;99.90;;;;;;5064420;28;20020;-82
2023/11/19 09:28:31;;;;;;;37.33;5.68;;;13.00;99.90;;;;;;5061763;28;20082;-81
2023/11/19 09:30:56;;;;;;;35.90;5.60;;;13.10;99.90;;;;;;5081813;28;20479;-82
2023/11/19 09:33:22;;;;;;;32.85;5.57;;;13.10;99.90;;;;;;5062126;28;20094;-81
2023/11/19 09:35:49;;;;;;;37.63;6.03;;;13.10;99.90;;;;;;5064689;28;20029;-82
2023/11/19 09:38:15;;;;;;;41.83;5.65;;;13.10;99.90;;;;;;5063288;28;20028;-82
2023/11/19 09:40:41;;;;;;;36.35;5.78;;;13.10;99.90;;;;;;5063670;28;20025;-81
2023/11/19 09:43:07;;;;;;;33.83;5.32;;;13.20;99.90;;;;;;5082172;28;20402;-81
2023/11/19 09:45:48;;;;;;;31.58;5.43;;;13.30;99.90;;;;;;5061854;28;20052;-81
2023/11/19 09:48:16;;;;;;;29.80;3.92;;;13.30;99.90;;;;;;5082064;28;20021;-82
2023/11/19 09:50:42;;;;;;;34.33;4.63;;;13.40;99.90;;;;;;5061995;28;20029;-82
2023/11/19 09:53:08;;;;;;;32.78;5.95;;;13.40;99.90;;;;;;5082079;28;20021;-82
2023/11/19 09:55:34;;;;;;;30.25;4.82;;;13.40;99.90;;;;;;5063897;28;20097;-81
2023/11/19 09:58:01;;;;;;;34.88;5.93;;;13.60;99.90;;;;;;5062850;28;20013;-82
2023/11/19 10:00:27;;;;;;;28.77;5.65;;;13.80;99.90;;;;;;5081965;28;20025;-82
2023/11/19 10:02:54;;;;;;;32.33;4.85;;;14.00;99.90;;;;;;5061611;28;20060;-82
2023/11/19 10:05:23;;;;;;;32.47;6.25;;;14.30;99.90;;;;;;5064149;28;20059;-81
2023/11/19 10:07:49;;;;;;;23.70;4.70;;;14.60;99.90;;;;;;5065289;28;20048;-82
2023/11/19 10:10:18;;;;;;;30.52;5.68;;;14.60;99.50;;;;;;5067731;28;20046;-82
2023/11/19 10:12:48;;;;;;;34.20;5.55;;;14.60;99.10;;;;;;5067228;28;20029;-82
2023/11/19 10:15:22;;;;;;;37.58;5.20;;;14.50;98.10;;;;;;5065759;28;20035;-82
2023/11/19 10:17:48;;;;;;;29.42;5.40;;;14.40;97.60;;;;;;5067655;28;20031;-81
2023/11/19 10:20:14;;;;;;;34.70;5.50;;;14.30;97.50;;;;;;5065587;28;20092;-80
2023/11/19 10:22:40;;;;;;;37.22;6.20;;;14.30;97.80;;;;;;5063709;28;20045;-82
2023/11/19 10:25:25;;;;;;;37.30;6.90;;;14.20;97.30;;;;;;5062206;28;20031;-81
2023/11/19 10:27:51;;;;;;;31.42;5.47;;;14.10;97.50;;;;;;5062818;28;20048;-81
2023/11/19 10:30:21;;;;;;;34.28;6.45;;;14.00;97.50;;;;;;5063596;28;20779;-82
2023/11/19 10:33:06;;;;;;;39.35;5.60;;;14.00;97.50;;;;;;5061708;28;20021;-83
2023/11/19 10:35:32;;;;;;;;;;;13.90;97.60;;;;;;5064405;28;20028;-80
2023/11/19 10:38:00;;;;;;;29.75;5.13;;;13.90;97.40;;;;;;5062345;28;19905;-80
2023/11/19 10:40:39;;;;;;;28.90;5.35;;;13.90;97.50;;;;;;5063600;28;20037;-80
2023/11/19 10:43:07;;;;;;;28.77;4.40;;;13.90;97.50;;;;;;5063782;28;20041;-81
2023/11/19 10:45:33;;;;;;;29.10;5.03;;;13.90;97.60;;;;;;5061758;28;20036;-82
2023/11/19 10:48:00;;;;;;;28.35;5.40;;;14.10;98.00;;;;;;5063555;28;20032;-81
2023/11/19 10:50:26;;;;;;;25.83;4.55;;;14.30;97.80;;;;;;5061257;28;20025;-82
2023/11/19 10:52:59;;;;;;;26.95;5.15;;;14.70;96.80;;;;;;5063534;28;20029;-82
2023/11/19 10:55:30;;;;;;;26.40;5.20;;;15.00;96.70;;;;;;5062556;28;20036;-81
2023/11/19 10:58:03;;;;;;;17.00;4.07;;;15.30;96.60;;;;;;5061827;28;20029;-82
2023/11/19 11:00:54;;;;;;;26.02;5.13;;;15.70;95.90;;;;;;5063408;28;20044;-81
2023/11/19 11:03:22;;;;;;;21.58;5.45;;;15.90;94.70;;;;;;5061212;28;20033;-82
2023/11/19 11:05:50;;;;;;;19.85;4.07;;;15.90;93.10;;;;;;5062926;28;20064;-82
2023/11/19 11:08:18;;;;;;;28.42;5.93;;;16.00;93.20;;;;;;5063779;28;20096;-83
2023/11/19 11:10:48;;;;;;;24.58;4.15;;;16.10;91.70;;;;;;5062132;28;20048;-81
2023/11/19 11:13:14;;;;;;;23.58;4.05;;;16.20;91.80;;;;;;5063394;28;20043;-81
2023/11/19 11:15:42;;;;;;;24.13;5.78;;;16.30;91.50;;;;;;5061124;28;20473;-82
2023/11/19 11:18:09;;;;;;;26.08;4.32;;;16.20;90.60;;;;;;5064431;28;20024;-80
2023/11/19 11:20:35;;;;;;;21.65;4.43;;;16.20;91.10;;;;;;5061089;28;20053;-81
2023/11/19 11:23:21;;;;;;;20.33;4.43;;;16.20;90.20;;;;;;5062915;28;20053;-83
2023/11/19 11:26:15;;;;;;;27.25;5.45;;;16.10;89.80;;;;;;5064822;28;20017;-81
2023/11/19 11:28:46;;;;;;;27.30;5.35;;;16.10;89.60;;;;;;5010589;28;20053;-82
2023/11/19 11:31:26;;;;;;;29.30;5.70;;;16.00;88.80;;;;;;5063075;28;20106;-82
2023/11/19 11:34:06;;;;;;;26.95;4.72;;;15.80;88.70;;;;;;5061372;28;20057;-82
2023/11/19 11:36:45;;;;;;;26.80;5.20;;;15.70;88.90;;;;;;5061400;28;20467;-81
2023/11/19 11:39:11;;;;;;;28.25;4.72;;;15.70;89.60;;;;;;5064229;28;20013;-81
2023/11/19 11:41:37;;;;;;;29.05;5.53;;;15.60;89.60;;;;;;5060044;28;20017;-82
2023/11/19 11:44:03;;;;;;;29.10;5.13;;;15.50;89.80;;;;;;5062270;28;20048;-82
2023/11/19 11:46:37;;;;;;;30.67;4.68;;;15.40;89.90;;;;;;5061693;28;20023;-81
2023/11/19 11:49:04;;;;;;;24.58;4.50;;;15.30;90.20;;;;;;5061734;28;20079;-82
2023/11/19 11:51:45;;;;;;;25.38;4.95;;;15.20;90.30;;;;;;5062052;28;20388;-81
2023/11/19 11:54:11;;;;;;;26.67;5.28;;;15.10;90.50;;;;;;5060302;28;20537;-81
2023/11/19 11:56:38;;;;;;;26.50;4.95;;;14.90;90.50;;;;;;5062115;28;20108;-82
2023/11/19 11:59:18;;;;;;;27.35;4.75;;;14.80;90.80;;;;;;5059942;28;20032;-82
2023/11/19 12:01:59;;;;;;;28.13;4.60;;;14.70;91.00;;;;;;5061886;28;20032;-82
2023/11/19 12:04:29;;;;;;;32.03;4.65;;;14.60;91.30;;;;;;5061775;28;20045;-82
2023/11/19 12:07:12;;;;;;;26.80;4.88;;;14.50;91.50;;;;;;5060061;28;20025;-83
2023/11/19 12:09:47;;;;;;;26.52;4.95;;;14.50;91.70;;;;;;5062213;28;20025;-82
2023/11/19 12:12:20;;;;;;;24.83;3.70;;;14.50;92.00;;;;;;5060113;28;20024;-79
2023/11/19 12:14:58;;;;;;;21.10;3.55;;;14.70;91.60;;;;;;5061160;28;20029;-80
2023/11/19 12:17:50;;;;;;;20.20;4.25;;;14.80;91.40;;;;;;5062044;28;20029;-81
2023/11/19 12:20:18;;;;;;;16.85;2.60;;;15.00;91.30;;;;;;5055349;28;20120;-82
2023/11/19 12:22:45;;;;;;;20.25;3.05;;;15.30;91.50;;;;;;5061847;28;20040;-81
2023/11/19 12:25:12;;;;;;;19.27;3.65;;;15.90;91.10;;;;;;5060412;28;20025;-80
2023/11/19 12:27:48;;;;;;;18.73;3.88;;;16.30;90.20;;;;;;5060815;28;20027;-81
2023/11/19 12:30:25;;;;;;;16.38;3.38;;;16.80;89.10;;;;;;5054622;28;20033;-81
2023/11/19 12:32:53;;;;;;;20.80;4.10;;;17.30;85.40;;;;;;5050030;28;20028;-81
2023/11/19 12:35:19;;;;;;;18.88;3.15;;;17.70;83.90;;;;;;5050834;28;20056;-82
2023/11/19 12:37:50;;;;;;;19.13;4.05;;;18.00;82.60;;;;;;5039484;28;20089;-81